Elmdale, Kansas
Current Conditions -  °F | °C
As of 3:53 AM on Saturday 22 Nov 2014 (Local Time) from KEMP Reporting Station
Moderate Fog Moderate Fog  
Wind Chill: 45°   Ceiling: 300
Heat Index: 48°   Visibility: 0.5mi
Dew Point: 48°   Wind: 6mph
Humidity: 100%   Direction: 180°S
Pressure: 30"   Gusts: NA
Location:  38.37°N, 96.64°W
Report Text: KEMP 220953Z AUTO 18005KT 1/2SM FG VV003 09/09 A3000 RMK AO2 SLP166 T00890089
Loading
Personal Weather Stations






























Interactive Weather Map New forecast layout! Learn more

10-Day Weather Forecast

Advertisements
Track Severe Weather on mobile